sensor_id;sensor_type;location;lat;lon;timestamp;temperature;humidity
21861;DHT22;11095;48.066;8.540;2023-05-29T00:00:21;11.00;99.90
21861;DHT22;11095;48.066;8.540;2023-05-29T00:02:49;10.90;99.90
21861;DHT22;11095;48.066;8.540;2023-05-29T00:05:15;10.90;99.90
21861;DHT22;11095;48.066;8.540;2023-05-29T00:07:41;10.80;99.90
21861;DHT22;11095;48.066;8.540;2023-05-29T00:10:08;10.70;99.90
21861;DHT22;11095;48.066;8.540;2023-05-29T00:12:34;10.60;99.90
21861;DHT22;11095;48.066;8.540;2023-05-29T00:15:00;10.50;99.90
21861;DHT22;11095;48.066;8.540;2023-05-29T00:17:26;10.50;99.90
21861;DHT22;11095;48.066;8.540;2023-05-29T00:19:52;10.40;99.90
21861;DHT22;11095;48.066;8.540;2023-05-29T00:22:17;10.40;99.90
21861;DHT22;11095;48.066;8.540;2023-05-29T00:24:43;10.40;99.90
21861;DHT22;11095;48.066;8.540;2023-05-29T00:27:09;10.40;99.90
21861;DHT22;11095;48.066;8.540;2023-05-29T00:29:36;10.40;99.90
21861;DHT22;11095;48.066;8.540;2023-05-29T00:32:02;10.40;99.90
21861;DHT22;11095;48.066;8.540;2023-05-29T00:34:27;10.40;99.90
21861;DHT22;11095;48.066;8.540;2023-05-29T00:36:53;10.40;99.90
21861;DHT22;11095;48.066;8.540;2023-05-29T00:39:21;10.40;99.90
21861;DHT22;11095;48.066;8.540;2023-05-29T00:41:47;10.40;99.90
21861;DHT22;11095;48.066;8.540;2023-05-29T00:44:17;10.30;99.90
21861;DHT22;11095;48.066;8.540;2023-05-29T00:46:43;10.30;99.90
21861;DHT22;11095;48.066;8.540;2023-05-29T00:49:09;10.20;99.90
21861;DHT22;11095;48.066;8.540;2023-05-29T00:51:37;10.20;99.90
21861;DHT22;11095;48.066;8.540;2023-05-29T00:54:07;10.10;99.90
21861;DHT22;11095;48.066;8.540;2023-05-29T00:56:34;10.10;99.90
21861;DHT22;11095;48.066;8.540;2023-05-29T00:59:08;10.00;99.90
21861;DHT22;11095;48.066;8.540;2023-05-29T01:01:34;10.00;99.90
21861;DHT22;11095;48.066;8.540;2023-05-29T01:04:03;9.90;99.90
21861;DHT22;11095;48.066;8.540;2023-05-29T01:06:32;9.80;99.90
21861;DHT22;11095;48.066;8.540;2023-05-29T01:08:58;9.70;99.90
21861;DHT22;11095;48.066;8.540;2023-05-29T01:13:51;9.70;99.90
21861;DHT22;11095;48.066;8.540;2023-05-29T01:16:34;9.60;99.90
21861;DHT22;11095;48.066;8.540;2023-05-29T01:27:45;9.50;99.90
21861;DHT22;11095;48.066;8.540;2023-05-29T01:30:14;9.60;99.90
21861;DHT22;11095;48.066;8.540;2023-05-29T01:32:41;9.60;99.90
21861;DHT22;11095;48.066;8.540;2023-05-29T01:35:07;9.60;99.90
21861;DHT22;11095;48.066;8.540;2023-05-29T01:37:33;9.60;99.90
21861;DHT22;11095;48.066;8.540;2023-05-29T01:39:59;9.60;99.90
21861;DHT22;11095;48.066;8.540;2023-05-29T01:42:26;9.60;99.90
21861;DHT22;11095;48.066;8.540;2023-05-29T01:44:53;9.50;99.90
21861;DHT22;11095;48.066;8.540;2023-05-29T01:47:19;9.50;99.90
21861;DHT22;11095;48.066;8.540;2023-05-29T01:49:47;9.50;99.90
21861;DHT22;11095;48.066;8.540;2023-05-29T01:52:15;9.60;99.90
21861;DHT22;11095;48.066;8.540;2023-05-29T01:54:41;9.50;99.90
21861;DHT22;11095;48.066;8.540;2023-05-29T01:57:07;9.60;99.90
21861;DHT22;11095;48.066;8.540;2023-05-29T01:59:33;9.50;99.90
21861;DHT22;11095;48.066;8.540;2023-05-29T02:02:07;9.50;99.90
21861;DHT22;11095;48.066;8.540;2023-05-29T02:04:33;9.40;99.90
21861;DHT22;11095;48.066;8.540;2023-05-29T02:06:58;9.40;99.90
21861;DHT22;11095;48.066;8.540;2023-05-29T02:09:24;9.30;99.90
21861;DHT22;11095;48.066;8.540;2023-05-29T02:11:50;9.20;99.90
21861;DHT22;11095;48.066;8.540;2023-05-29T02:14:16;9.10;99.90
21861;DHT22;11095;48.066;8.540;2023-05-29T02:16:41;9.10;99.90
21861;DHT22;11095;48.066;8.540;2023-05-29T02:19:09;9.00;99.90
21861;DHT22;11095;48.066;8.540;2023-05-29T02:21:38;9.00;99.90
21861;DHT22;11095;48.066;8.540;2023-05-29T02:24:04;9.00;99.90
21861;DHT22;11095;48.066;8.540;2023-05-29T02:26:31;9.00;99.90
21861;DHT22;11095;48.066;8.540;2023-05-29T02:28:56;8.90;99.90
21861;DHT22;11095;48.066;8.540;2023-05-29T02:31:22;8.90;99.90
21861;DHT22;11095;48.066;8.540;2023-05-29T02:33:48;8.80;99.90
21861;DHT22;11095;48.066;8.540;2023-05-29T02:36:13;8.80;99.90
21861;DHT22;11095;48.066;8.540;2023-05-29T02:38:39;8.80;99.90
21861;DHT22;11095;48.066;8.540;2023-05-29T02:41:05;8.80;99.90
21861;DHT22;11095;48.066;8.540;2023-05-29T02:43:31;8.80;99.90
21861;DHT22;11095;48.066;8.540;2023-05-29T02:45:57;8.90;99.90
21861;DHT22;11095;48.066;8.540;2023-05-29T02:48:22;8.80;99.90
21861;DHT22;11095;48.066;8.540;2023-05-29T02:50:48;8.70;99.90
21861;DHT22;11095;48.066;8.540;2023-05-29T02:53:13;8.70;99.90
21861;DHT22;11095;48.066;8.540;2023-05-29T02:55:39;8.60;99.90
21861;DHT22;11095;48.066;8.540;2023-05-29T02:58:05;8.50;99.90
21861;DHT22;11095;48.066;8.540;2023-05-29T03:00:30;8.50;99.90
21861;DHT22;11095;48.066;8.540;2023-05-29T03:02:56;8.40;99.90
21861;DHT22;11095;48.066;8.540;2023-05-29T03:05:22;8.30;99.90
21861;DHT22;11095;48.066;8.540;2023-05-29T03:07:47;8.30;99.90
21861;DHT22;11095;48.066;8.540;2023-05-29T03:10:13;8.20;99.90
21861;DHT22;11095;48.066;8.540;2023-05-29T03:12:43;8.20;99.90
21861;DHT22;11095;48.066;8.540;2023-05-29T03:15:09;8.10;99.90
21861;DHT22;11095;48.066;8.540;2023-05-29T03:17:35;8.10;99.90
21861;DHT22;11095;48.066;8.540;2023-05-29T03:20:03;8.10;99.90
21861;DHT22;11095;48.066;8.540;2023-05-29T03:22:32;8.00;99.90
21861;DHT22;11095;48.066;8.540;2023-05-29T03:24:57;8.00;99.90
21861;DHT22;11095;48.066;8.540;2023-05-29T03:27:23;8.00;99.90
21861;DHT22;11095;48.066;8.540;2023-05-29T03:29:49;8.00;99.90
21861;DHT22;11095;48.066;8.540;2023-05-29T03:32:14;8.10;99.90
21861;DHT22;11095;48.066;8.540;2023-05-29T03:34:40;8.20;99.90
21861;DHT22;11095;48.066;8.540;2023-05-29T03:37:05;8.20;99.90
21861;DHT22;11095;48.066;8.540;2023-05-29T03:39:31;8.20;99.90
21861;DHT22;11095;48.066;8.540;2023-05-29T03:41:57;8.20;99.90
21861;DHT22;11095;48.066;8.540;2023-05-29T03:44:22;8.10;99.90
21861;DHT22;11095;48.066;8.540;2023-05-29T03:46:50;8.10;99.90
21861;DHT22;11095;48.066;8.540;2023-05-29T03:49:15;8.20;99.90
21861;DHT22;11095;48.066;8.540;2023-05-29T03:51:41;8.30;99.90
21861;DHT22;11095;48.066;8.540;2023-05-29T03:54:06;8.50;99.90
21861;DHT22;11095;48.066;8.540;2023-05-29T03:56:32;8.80;99.90
21861;DHT22;11095;48.066;8.540;2023-05-29T03:58:58;9.10;99.90
21861;DHT22;11095;48.066;8.540;2023-05-29T04:01:23;9.50;99.90
21861;DHT22;11095;48.066;8.540;2023-05-29T04:03:49;9.90;99.90
21861;DHT22;11095;48.066;8.540;2023-05-29T04:06:15;10.30;99.90
21861;DHT22;11095;48.066;8.540;2023-05-29T04:08:41;10.80;99.90
21861;DHT22;11095;48.066;8.540;2023-05-29T04:11:07;11.30;99.90
21861;DHT22;11095;48.066;8.540;2023-05-29T04:13:32;11.80;99.90
21861;DHT22;11095;48.066;8.540;2023-05-29T04:15:58;12.40;99.90
21861;DHT22;11095;48.066;8.540;2023-05-29T04:18:24;12.90;99.90
21861;DHT22;11095;48.066;8.540;2023-05-29T04:20:51;13.40;99.90
21861;DHT22;11095;48.066;8.540;2023-05-29T04:23:16;14.00;99.90
21861;DHT22;11095;48.066;8.540;2023-05-29T04:25:42;14.70;99.90
21861;DHT22;11095;48.066;8.540;2023-05-29T04:28:09;15.30;99.90
21861;DHT22;11095;48.066;8.540;2023-05-29T04:30:36;16.00;99.90
21861;DHT22;11095;48.066;8.540;2023-05-29T04:33:01;16.60;99.90
21861;DHT22;11095;48.066;8.540;2023-05-29T04:35:28;17.30;99.90
21861;DHT22;11095;48.066;8.540;2023-05-29T04:37:54;17.90;99.90
21861;DHT22;11095;48.066;8.540;2023-05-29T04:40:22;18.50;99.90
21861;DHT22;11095;48.066;8.540;2023-05-29T04:42:47;19.10;99.90
21861;DHT22;11095;48.066;8.540;2023-05-29T04:45:13;19.70;99.90
21861;DHT22;11095;48.066;8.540;2023-05-29T04:47:39;20.30;99.90
21861;DHT22;11095;48.066;8.540;2023-05-29T04:50:12;20.90;99.90
21861;DHT22;11095;48.066;8.540;2023-05-29T04:52:38;21.50;99.90
21861;DHT22;11095;48.066;8.540;2023-05-29T04:55:04;22.00;99.90
21861;DHT22;11095;48.066;8.540;2023-05-29T04:57:30;22.50;99.90
21861;DHT22;11095;48.066;8.540;2023-05-29T04:59:56;23.00;99.90
21861;DHT22;11095;48.066;8.540;2023-05-29T05:02:22;23.60;99.90
21861;DHT22;11095;48.066;8.540;2023-05-29T05:04:47;24.00;99.90
21861;DHT22;11095;48.066;8.540;2023-05-29T05:07:13;24.60;99.90
21861;DHT22;11095;48.066;8.540;2023-05-29T05:09:41;25.10;99.90
21861;DHT22;11095;48.066;8.540;2023-05-29T05:12:07;25.50;99.20
21861;DHT22;11095;48.066;8.540;2023-05-29T05:14:33;25.30;97.80
21861;DHT22;11095;48.066;8.540;2023-05-29T05:16:58;25.30;98.00
21861;DHT22;11095;48.066;8.540;2023-05-29T05:19:24;25.60;96.80
21861;DHT22;11095;48.066;8.540;2023-05-29T05:21:50;25.60;96.40
21861;DHT22;11095;48.066;8.540;2023-05-29T05:24:15;25.80;95.90
21861;DHT22;11095;48.066;8.540;2023-05-29T05:26:41;26.20;94.60
21861;DHT22;11095;48.066;8.540;2023-05-29T05:29:06;26.50;93.60
21861;DHT22;11095;48.066;8.540;2023-05-29T05:31:32;26.70;92.90
21861;DHT22;11095;48.066;8.540;2023-05-29T05:33:58;26.80;92.50
21861;DHT22;11095;48.066;8.540;2023-05-29T05:36:23;27.10;91.70
21861;DHT22;11095;48.066;8.540;2023-05-29T05:38:49;27.60;91.40
21861;DHT22;11095;48.066;8.540;2023-05-29T05:41:15;28.20;90.10
21861;DHT22;11095;48.066;8.540;2023-05-29T05:43:40;28.50;88.70
21861;DHT22;11095;48.066;8.540;2023-05-29T05:46:06;28.50;86.70
21861;DHT22;11095;48.066;8.540;2023-05-29T05:48:32;28.50;86.00
21861;DHT22;11095;48.066;8.540;2023-05-29T05:50:57;28.80;85.40
21861;DHT22;11095;48.066;8.540;2023-05-29T05:53:23;29.20;83.70
21861;DHT22;11095;48.066;8.540;2023-05-29T05:55:49;29.30;83.40
21861;DHT22;11095;48.066;8.540;2023-05-29T05:58:15;29.40;82.50
21861;DHT22;11095;48.066;8.540;2023-05-29T06:00:41;29.50;82.00
21861;DHT22;11095;48.066;8.540;2023-05-29T06:03:07;29.20;81.90
21861;DHT22;11095;48.066;8.540;2023-05-29T06:05:33;29.30;80.90
21861;DHT22;11095;48.066;8.540;2023-05-29T06:08:01;29.30;80.60
21861;DHT22;11095;48.066;8.540;2023-05-29T06:10:27;29.00;81.70
21861;DHT22;11095;48.066;8.540;2023-05-29T06:12:53;29.30;81.60
21861;DHT22;11095;48.066;8.540;2023-05-29T06:15:19;29.10;81.60
21861;DHT22;11095;48.066;8.540;2023-05-29T06:17:44;29.50;81.50
21861;DHT22;11095;48.066;8.540;2023-05-29T06:20:10;29.90;80.90
21861;DHT22;11095;48.066;8.540;2023-05-29T06:22:37;29.80;80.10
21861;DHT22;11095;48.066;8.540;2023-05-29T06:25:03;29.80;80.30
21861;DHT22;11095;48.066;8.540;2023-05-29T06:27:28;26.70;80.20
21861;DHT22;11095;48.066;8.540;2023-05-29T06:29:54;26.70;83.00
21861;DHT22;11095;48.066;8.540;2023-05-29T06:32:20;27.20;82.40
21861;DHT22;11095;48.066;8.540;2023-05-29T06:34:45;27.40;81.40
21861;DHT22;11095;48.066;8.540;2023-05-29T06:37:11;28.20;79.80
21861;DHT22;11095;48.066;8.540;2023-05-29T06:39:36;28.50;77.60
21861;DHT22;11095;48.066;8.540;2023-05-29T06:42:02;28.20;78.20
21861;DHT22;11095;48.066;8.540;2023-05-29T06:44:29;28.30;78.20
21861;DHT22;11095;48.066;8.540;2023-05-29T06:46:54;28.30;78.60
21861;DHT22;11095;48.066;8.540;2023-05-29T06:49:20;28.80;78.50
21861;DHT22;11095;48.066;8.540;2023-05-29T06:51:45;29.40;77.00
21861;DHT22;11095;48.066;8.540;2023-05-29T06:54:11;29.70;77.80
21861;DHT22;11095;48.066;8.540;2023-05-29T06:56:37;29.90;78.30
21861;DHT22;11095;48.066;8.540;2023-05-29T06:59:02;30.20;78.60
21861;DHT22;11095;48.066;8.540;2023-05-29T07:01:28;29.60;79.10
21861;DHT22;11095;48.066;8.540;2023-05-29T07:03:53;29.80;80.10
21861;DHT22;11095;48.066;8.540;2023-05-29T07:06:19;29.60;79.10
21861;DHT22;11095;48.066;8.540;2023-05-29T07:08:45;27.60;82.30
21861;DHT22;11095;48.066;8.540;2023-05-29T07:11:11;25.80;84.50
21861;DHT22;11095;48.066;8.540;2023-05-29T07:13:37;25.20;86.60
21861;DHT22;11095;48.066;8.540;2023-05-29T07:16:02;24.60;90.10
21861;DHT22;11095;48.066;8.540;2023-05-29T07:18:28;24.20;91.20
21861;DHT22;11095;48.066;8.540;2023-05-29T07:20:55;24.50;91.60
21861;DHT22;11095;48.066;8.540;2023-05-29T07:23:21;25.80;91.30
21861;DHT22;11095;48.066;8.540;2023-05-29T07:25:46;26.30;88.90
21861;DHT22;11095;48.066;8.540;2023-05-29T07:28:12;25.70;87.00
21861;DHT22;11095;48.066;8.540;2023-05-29T07:30:38;26.10;85.10
21861;DHT22;11095;48.066;8.540;2023-05-29T07:33:04;24.90;87.60
21861;DHT22;11095;48.066;8.540;2023-05-29T07:35:30;25.30;89.00
21861;DHT22;11095;48.066;8.540;2023-05-29T07:37:58;25.30;84.50
21861;DHT22;11095;48.066;8.540;2023-05-29T07:40:24;24.40;86.40
21861;DHT22;11095;48.066;8.540;2023-05-29T07:42:49;23.80;89.70
21861;DHT22;11095;48.066;8.540;2023-05-29T07:45:15;23.50;90.50
21861;DHT22;11095;48.066;8.540;2023-05-29T07:47:41;23.00;90.50
21861;DHT22;11095;48.066;8.540;2023-05-29T07:50:09;22.20;92.10
21861;DHT22;11095;48.066;8.540;2023-05-29T07:52:35;22.50;92.10
21861;DHT22;11095;48.066;8.540;2023-05-29T07:55:01;22.70;92.00
21861;DHT22;11095;48.066;8.540;2023-05-29T07:57:28;22.50;92.10
21861;DHT22;11095;48.066;8.540;2023-05-29T07:59:53;22.80;92.80
21861;DHT22;11095;48.066;8.540;2023-05-29T08:02:19;22.70;92.50
21861;DHT22;11095;48.066;8.540;2023-05-29T08:04:45;22.10;93.00
21861;DHT22;11095;48.066;8.540;2023-05-29T08:07:11;22.60;93.20
21861;DHT22;11095;48.066;8.540;2023-05-29T08:09:37;23.20;93.10
21861;DHT22;11095;48.066;8.540;2023-05-29T08:12:03;23.60;92.10
21861;DHT22;11095;48.066;8.540;2023-05-29T08:14:28;23.70;92.50
21861;DHT22;11095;48.066;8.540;2023-05-29T08:16:54;23.10;92.80
21861;DHT22;11095;48.066;8.540;2023-05-29T08:19:20;23.10;91.00
21861;DHT22;11095;48.066;8.540;2023-05-29T08:21:48;22.80;91.30
21861;DHT22;11095;48.066;8.540;2023-05-29T08:24:14;21.90;93.50
21861;DHT22;11095;48.066;8.540;2023-05-29T08:26:39;21.90;93.20
21861;DHT22;11095;48.066;8.540;2023-05-29T08:29:09;21.80;93.80
21861;DHT22;11095;48.066;8.540;2023-05-29T08:31:34;22.10;94.10
21861;DHT22;11095;48.066;8.540;2023-05-29T08:34:03;22.10;93.10
21861;DHT22;11095;48.066;8.540;2023-05-29T08:36:29;21.70;93.40
21861;DHT22;11095;48.066;8.540;2023-05-29T08:38:54;21.60;94.80
21861;DHT22;11095;48.066;8.540;2023-05-29T08:41:51;21.60;95.00
21861;DHT22;11095;48.066;8.540;2023-05-29T08:44:22;21.30;94.70
21861;DHT22;11095;48.066;8.540;2023-05-29T08:46:54;21.70;95.00
21861;DHT22;11095;48.066;8.540;2023-05-29T08:49:20;21.80;93.30
21861;DHT22;11095;48.066;8.540;2023-05-29T08:51:49;22.00;92.90
21861;DHT22;11095;48.066;8.540;2023-05-29T08:54:18;21.50;92.90
21861;DHT22;11095;48.066;8.540;2023-05-29T08:56:44;22.20;93.20
21861;DHT22;11095;48.066;8.540;2023-05-29T08:59:11;21.60;92.80
21861;DHT22;11095;48.066;8.540;2023-05-29T09:01:38;21.10;93.40
21861;DHT22;11095;48.066;8.540;2023-05-29T09:04:04;21.60;93.50
21861;DHT22;11095;48.066;8.540;2023-05-29T09:06:30;21.70;92.80
21861;DHT22;11095;48.066;8.540;2023-05-29T09:08:56;21.20;92.90
21861;DHT22;11095;48.066;8.540;2023-05-29T09:11:23;22.10;92.90
21861;DHT22;11095;48.066;8.540;2023-05-29T09:13:49;21.80;92.90
21861;DHT22;11095;48.066;8.540;2023-05-29T09:16:16;21.40;93.40
21861;DHT22;11095;48.066;8.540;2023-05-29T09:18:43;21.10;94.10
21861;DHT22;11095;48.066;8.540;2023-05-29T09:21:26;21.20;94.50
21861;DHT22;11095;48.066;8.540;2023-05-29T09:23:54;21.00;95.10
21861;DHT22;11095;48.066;8.540;2023-05-29T09:26:21;21.00;94.30
21861;DHT22;11095;48.066;8.540;2023-05-29T09:28:49;20.80;93.90
21861;DHT22;11095;48.066;8.540;2023-05-29T09:31:15;21.20;94.50
21861;DHT22;11095;48.066;8.540;2023-05-29T09:33:49;22.10;94.20
21861;DHT22;11095;48.066;8.540;2023-05-29T09:36:22;22.30;93.00
21861;DHT22;11095;48.066;8.540;2023-05-29T09:38:48;22.20;92.60
21861;DHT22;11095;48.066;8.540;2023-05-29T09:41:20;21.50;92.00
21861;DHT22;11095;48.066;8.540;2023-05-29T09:43:48;21.20;93.40
21861;DHT22;11095;48.066;8.540;2023-05-29T09:46:17;21.00;94.00
21861;DHT22;11095;48.066;8.540;2023-05-29T09:48:47;21.80;93.70
21861;DHT22;11095;48.066;8.540;2023-05-29T09:51:23;21.80;93.10
21861;DHT22;11095;48.066;8.540;2023-05-29T09:53:49;21.00;93.30
21861;DHT22;11095;48.066;8.540;2023-05-29T09:56:19;20.80;93.80
21861;DHT22;11095;48.066;8.540;2023-05-29T09:58:49;21.10;93.70
21861;DHT22;11095;48.066;8.540;2023-05-29T10:01:15;20.80;94.30
21861;DHT22;11095;48.066;8.540;2023-05-29T10:03:43;21.30;93.90
21861;DHT22;11095;48.066;8.540;2023-05-29T10:06:16;21.70;94.20
21861;DHT22;11095;48.066;8.540;2023-05-29T10:08:46;21.70;93.80
21861;DHT22;11095;48.066;8.540;2023-05-29T10:11:21;21.30;94.40
21861;DHT22;11095;48.066;8.540;2023-05-29T10:13:51;20.80;96.00
21861;DHT22;11095;48.066;8.540;2023-05-29T10:16:21;20.90;94.50
21861;DHT22;11095;48.066;8.540;2023-05-29T10:18:54;20.90;95.40
21861;DHT22;11095;48.066;8.540;2023-05-29T10:21:21;21.30;91.80
21861;DHT22;11095;48.066;8.540;2023-05-29T10:23:50;21.40;94.90
21861;DHT22;11095;48.066;8.540;2023-05-29T10:26:22;21.60;94.70
21861;DHT22;11095;48.066;8.540;2023-05-29T10:29:05;21.60;94.40
21861;DHT22;11095;48.066;8.540;2023-05-29T10:34:31;21.10;95.40
21861;DHT22;11095;48.066;8.540;2023-05-29T10:37:18;21.20;95.10
21861;DHT22;11095;48.066;8.540;2023-05-29T10:39:46;21.40;95.00
21861;DHT22;11095;48.066;8.540;2023-05-29T10:42:51;21.40;94.60
21861;DHT22;11095;48.066;8.540;2023-05-29T10:50:47;21.60;95.20
21861;DHT22;11095;48.066;8.540;2023-05-29T10:53:17;21.80;96.10
21861;DHT22;11095;48.066;8.540;2023-05-29T10:55:45;22.20;95.40
21861;DHT22;11095;48.066;8.540;2023-05-29T10:58:21;21.60;95.80
21861;DHT22;11095;48.066;8.540;2023-05-29T11:00:48;21.60;95.80
21861;DHT22;11095;48.066;8.540;2023-05-29T11:03:15;21.40;95.80
21861;DHT22;11095;48.066;8.540;2023-05-29T11:06:02;21.40;95.60
21861;DHT22;11095;48.066;8.540;2023-05-29T11:11:03;21.10;95.90
21861;DHT22;11095;48.066;8.540;2023-05-29T11:13:33;20.70;95.80
21861;DHT22;11095;48.066;8.540;2023-05-29T11:19:08;21.10;94.20
21861;DHT22;11095;48.066;8.540;2023-05-29T11:22:03;21.00;92.00
21861;DHT22;11095;48.066;8.540;2023-05-29T11:24:34;21.20;92.30
21861;DHT22;11095;48.066;8.540;2023-05-29T11:27:08;21.40;92.00
21861;DHT22;11095;48.066;8.540;2023-05-29T11:29:37;21.40;92.90
21861;DHT22;11095;48.066;8.540;2023-05-29T11:32:05;21.30;93.70
21861;DHT22;11095;48.066;8.540;2023-05-29T11:34:33;21.40;93.80
21861;DHT22;11095;48.066;8.540;2023-05-29T11:37:02;21.50;94.10
21861;DHT22;11095;48.066;8.540;2023-05-29T11:39:28;21.70;94.40
21861;DHT22;11095;48.066;8.540;2023-05-29T11:41:55;21.80;89.30
21861;DHT22;11095;48.066;8.540;2023-05-29T11:44:24;21.80;87.70
21861;DHT22;11095;48.066;8.540;2023-05-29T11:47:04;21.90;87.40
21861;DHT22;11095;48.066;8.540;2023-05-29T11:49:31;21.90;84.30
21861;DHT22;11095;48.066;8.540;2023-05-29T11:52:12;22.10;83.10
21861;DHT22;11095;48.066;8.540;2023-05-29T11:54:39;22.10;81.00
21861;DHT22;11095;48.066;8.540;2023-05-29T11:57:20;22.30;80.40
21861;DHT22;11095;48.066;8.540;2023-05-29T11:59:46;22.40;79.50
21861;DHT22;11095;48.066;8.540;2023-05-29T12:02:12;22.70;79.60
21861;DHT22;11095;48.066;8.540;2023-05-29T12:04:38;22.40;78.80
21861;DHT22;11095;48.066;8.540;2023-05-29T12:07:19;22.10;78.00
21861;DHT22;11095;48.066;8.540;2023-05-29T12:09:44;22.10;79.10
21861;DHT22;11095;48.066;8.540;2023-05-29T12:12:10;22.30;79.70
21861;DHT22;11095;48.066;8.540;2023-05-29T12:14:36;22.00;79.50
21861;DHT22;11095;48.066;8.540;2023-05-29T12:17:01;22.20;80.40
21861;DHT22;11095;48.066;8.540;2023-05-29T12:19:27;22.20;79.50
21861;DHT22;11095;48.066;8.540;2023-05-29T12:22:01;22.40;82.00
21861;DHT22;11095;48.066;8.540;2023-05-29T12:24:26;22.20;80.20
21861;DHT22;11095;48.066;8.540;2023-05-29T12:26:54;22.20;80.30
21861;DHT22;11095;48.066;8.540;2023-05-29T12:29:19;22.00;80.50
21861;DHT22;11095;48.066;8.540;2023-05-29T12:31:45;22.00;82.20
21861;DHT22;11095;48.066;8.540;2023-05-29T12:34:12;22.20;81.80
21861;DHT22;11095;48.066;8.540;2023-05-29T12:36:42;22.40;83.40
21861;DHT22;11095;48.066;8.540;2023-05-29T12:39:11;22.50;82.00
21861;DHT22;11095;48.066;8.540;2023-05-29T12:41:38;22.30;83.70
21861;DHT22;11095;48.066;8.540;2023-05-29T12:44:06;22.20;88.80
21861;DHT22;11095;48.066;8.540;2023-05-29T12:46:40;22.20;89.70
21861;DHT22;11095;48.066;8.540;2023-05-29T12:49:16;22.00;91.00
21861;DHT22;11095;48.066;8.540;2023-05-29T12:51:43;22.00;89.10
21861;DHT22;11095;48.066;8.540;2023-05-29T12:54:14;22.10;90.40
21861;DHT22;11095;48.066;8.540;2023-05-29T12:56:40;22.30;90.70
21861;DHT22;11095;48.066;8.540;2023-05-29T12:59:10;22.30;90.40
21861;DHT22;11095;48.066;8.540;2023-05-29T13:01:38;22.20;91.00
21861;DHT22;11095;48.066;8.540;2023-05-29T13:04:05;22.10;87.90
21861;DHT22;11095;48.066;8.540;2023-05-29T13:06:35;22.00;88.70
21861;DHT22;11095;48.066;8.540;2023-05-29T13:09:01;21.90;91.10
21861;DHT22;11095;48.066;8.540;2023-05-29T13:11:26;22.00;91.60
21861;DHT22;11095;48.066;8.540;2023-05-29T13:13:52;21.90;91.60
21861;DHT22;11095;48.066;8.540;2023-05-29T13:16:18;22.00;91.50
21861;DHT22;11095;48.066;8.540;2023-05-29T13:18:44;22.20;91.70
21861;DHT22;11095;48.066;8.540;2023-05-29T13:21:10;22.30;91.00
21861;DHT22;11095;48.066;8.540;2023-05-29T13:23:36;21.90;91.70
21861;DHT22;11095;48.066;8.540;2023-05-29T13:26:04;21.90;91.60
21861;DHT22;11095;48.066;8.540;2023-05-29T13:28:30;21.90;92.30
21861;DHT22;11095;48.066;8.540;2023-05-29T13:30:57;22.10;92.60
21861;DHT22;11095;48.066;8.540;2023-05-29T13:33:22;22.00;88.60
21861;DHT22;11095;48.066;8.540;2023-05-29T13:35:48;21.80;90.20
21861;DHT22;11095;48.066;8.540;2023-05-29T13:38:14;22.10;89.60
21861;DHT22;11095;48.066;8.540;2023-05-29T13:40:39;22.10;91.50
21861;DHT22;11095;48.066;8.540;2023-05-29T13:43:05;22.40;92.50
21861;DHT22;11095;48.066;8.540;2023-05-29T13:45:31;22.30;92.90
21861;DHT22;11095;48.066;8.540;2023-05-29T13:47:57;22.20;91.90
21861;DHT22;11095;48.066;8.540;2023-05-29T13:50:23;22.30;92.70
21861;DHT22;11095;48.066;8.540;2023-05-29T13:52:50;22.20;92.50
21861;DHT22;11095;48.066;8.540;2023-05-29T13:55:16;22.20;92.50
21861;DHT22;11095;48.066;8.540;2023-05-29T13:57:41;21.90;92.00
21861;DHT22;11095;48.066;8.540;2023-05-29T14:00:10;21.80;92.00
21861;DHT22;11095;48.066;8.540;2023-05-29T14:02:36;21.90;92.60
21861;DHT22;11095;48.066;8.540;2023-05-29T14:05:03;22.00;92.40
21861;DHT22;11095;48.066;8.540;2023-05-29T14:07:28;22.10;92.40
21861;DHT22;11095;48.066;8.540;2023-05-29T14:09:54;22.10;91.60
21861;DHT22;11095;48.066;8.540;2023-05-29T14:12:20;22.20;91.70
21861;DHT22;11095;48.066;8.540;2023-05-29T14:14:46;22.30;91.90
21861;DHT22;11095;48.066;8.540;2023-05-29T14:17:13;22.10;92.10
21861;DHT22;11095;48.066;8.540;2023-05-29T14:19:39;22.10;92.30
21861;DHT22;11095;48.066;8.540;2023-05-29T14:22:04;22.20;91.60
21861;DHT22;11095;48.066;8.540;2023-05-29T14:24:30;22.10;92.40
21861;DHT22;11095;48.066;8.540;2023-05-29T14:26:56;22.10;92.60
21861;DHT22;11095;48.066;8.540;2023-05-29T14:29:27;22.00;91.70
21861;DHT22;11095;48.066;8.540;2023-05-29T14:31:53;21.90;92.20
21861;DHT22;11095;48.066;8.540;2023-05-29T14:34:18;21.80;92.50
21861;DHT22;11095;48.066;8.540;2023-05-29T14:36:44;21.90;92.40
21861;DHT22;11095;48.066;8.540;2023-05-29T14:39:10;21.90;91.90
21861;DHT22;11095;48.066;8.540;2023-05-29T14:41:37;21.80;91.50
21861;DHT22;11095;48.066;8.540;2023-05-29T14:44:04;21.90;92.30
21861;DHT22;11095;48.066;8.540;2023-05-29T14:46:30;22.10;90.90
21861;DHT22;11095;48.066;8.540;2023-05-29T14:49:00;22.00;90.80
21861;DHT22;11095;48.066;8.540;2023-05-29T14:51:26;21.80;90.20
21861;DHT22;11095;48.066;8.540;2023-05-29T14:53:52;21.90;90.20
21861;DHT22;11095;48.066;8.540;2023-05-29T14:56:18;22.10;90.70
21861;DHT22;11095;48.066;8.540;2023-05-29T14:58:45;22.20;89.90
21861;DHT22;11095;48.066;8.540;2023-05-29T15:01:11;21.90;90.00
21861;DHT22;11095;48.066;8.540;2023-05-29T15:03:36;21.80;90.60
21861;DHT22;11095;48.066;8.540;2023-05-29T15:06:05;21.70;89.40
21861;DHT22;11095;48.066;8.540;2023-05-29T15:08:32;21.70;89.30
21861;DHT22;11095;48.066;8.540;2023-05-29T15:11:00;21.70;88.50
21861;DHT22;11095;48.066;8.540;2023-05-29T15:13:28;21.70;88.50
21861;DHT22;11095;48.066;8.540;2023-05-29T15:15:57;21.80;88.40
21861;DHT22;11095;48.066;8.540;2023-05-29T15:18:28;21.90;88.20
21861;DHT22;11095;48.066;8.540;2023-05-29T15:20:54;22.00;88.70
21861;DHT22;11095;48.066;8.540;2023-05-29T15:23:20;21.90;87.10
21861;DHT22;11095;48.066;8.540;2023-05-29T15:25:49;22.00;87.40
21861;DHT22;11095;48.066;8.540;2023-05-29T15:28:15;22.00;87.80
21861;DHT22;11095;48.066;8.540;2023-05-29T15:30:51;22.00;86.00
21861;DHT22;11095;48.066;8.540;2023-05-29T15:33:20;21.80;85.70
21861;DHT22;11095;48.066;8.540;2023-05-29T15:35:46;21.90;86.00
21861;DHT22;11095;48.066;8.540;2023-05-29T15:38:14;21.90;85.70
21861;DHT22;11095;48.066;8.540;2023-05-29T15:40:40;21.90;85.90
21861;DHT22;11095;48.066;8.540;2023-05-29T15:43:06;21.90;87.30
21861;DHT22;11095;48.066;8.540;2023-05-29T15:45:32;21.90;86.50
21861;DHT22;11095;48.066;8.540;2023-05-29T15:47:58;22.00;85.80
21861;DHT22;11095;48.066;8.540;2023-05-29T15:50:23;22.20;85.20
21861;DHT22;11095;48.066;8.540;2023-05-29T15:52:49;22.00;85.40
21861;DHT22;11095;48.066;8.540;2023-05-29T15:55:18;22.00;85.80
21861;DHT22;11095;48.066;8.540;2023-05-29T15:57:44;21.90;85.50